Time;durP1;ratioP1;P1;durP2;ratioP2;P2;SDS_P1;SDS_P2;PMS_P1;PMS_P2;Temp;Humidity;BMP_temperature;BMP_pressure;BME280_temperature;BME280_humidity;BME280_pressure;Samples;Min_cycle;Max_cycle;Signal;HPM_P1;HPM_P2
2023/10/23 00:01:01;;;;;;;5.28;3.92;;;;;;;7.39;100.00;96387.78;5040385;28;20021;-67
2023/10/23 00:03:27;;;;;;;6.55;3.65;;;;;;;7.44;100.00;96382.06;5037011;28;20109;-67
2023/10/23 00:05:53;;;;;;;5.53;3.80;;;;;;;7.31;100.00;96384.09;5041018;28;20037;-67
2023/10/23 00:08:18;;;;;;;6.43;4.00;;;;;;;6.79;100.00;96387.81;5035464;28;20048;-66
2023/10/23 00:10:46;;;;;;;5.60;3.40;;;;;;;6.53;100.00;96389.09;5032230;28;20038;-67
2023/10/23 00:13:12;;;;;;;5.45;3.47;;;;;;;6.42;100.00;96385.31;5024975;28;20097;-67
2023/10/23 00:15:37;;;;;;;5.65;4.15;;;;;;;6.59;100.00;96385.00;5026278;28;20515;-67
2023/10/23 00:18:03;;;;;;;6.30;3.60;;;;;;;6.68;100.00;96382.09;5032014;28;20041;-67
2023/10/23 00:20:28;;;;;;;7.30;3.88;;;;;;;6.73;100.00;96384.56;5022802;28;20041;-67
2023/10/23 00:22:54;;;;;;;5.70;3.55;;;;;;;6.94;100.00;96391.72;5040495;28;20042;-67
2023/10/23 00:25:19;;;;;;;6.55;3.75;;;;;;;7.06;100.00;96402.53;5035637;28;20050;-67
2023/10/23 00:27:45;;;;;;;6.10;3.92;;;;;;;7.17;100.00;96398.16;5041691;28;20068;-67
2023/10/23 00:30:10;;;;;;;5.80;3.55;;;;;;;7.13;100.00;96394.56;5037978;28;20525;-68
2023/10/23 00:32:36;;;;;;;8.23;3.60;;;;;;;7.27;100.00;96391.38;5042399;28;20056;-68
2023/10/23 00:35:01;;;;;;;8.40;3.35;;;;;;;7.33;100.00;96392.69;5047620;28;20039;-68
2023/10/23 00:37:27;;;;;;;5.85;3.33;;;;;;;7.38;100.00;96397.06;5032911;28;20099;-67
2023/10/23 00:39:52;;;;;;;5.90;3.00;;;;;;;7.36;100.00;96400.16;5039449;28;20044;-67
2023/10/23 00:42:17;;;;;;;6.45;3.25;;;;;;;7.17;100.00;96403.59;5045200;28;20069;-67
2023/10/23 00:44:43;;;;;;;7.50;3.45;;;;;;;6.81;100.00;96402.69;5040845;28;20038;-67
2023/10/23 00:47:10;;;;;;;5.70;3.50;;;;;;;6.44;100.00;96402.84;5035378;28;20045;-68
2023/10/23 00:49:36;;;;;;;9.15;4.00;;;;;;;6.34;100.00;96392.50;5040781;28;20056;-68
2023/10/23 00:52:01;;;;;;;9.00;3.95;;;;;;;6.30;100.00;96391.59;5031758;28;20046;-67
2023/10/23 00:54:28;;;;;;;7.03;4.07;;;;;;;6.42;100.00;96388.03;5022824;28;20393;-67
2023/10/23 00:56:53;;;;;;;10.38;4.00;;;;;;;6.60;100.00;96383.06;5040843;28;20101;-68
2023/10/23 00:59:20;;;;;;;6.07;3.60;;;;;;;6.78;100.00;96378.88;5035854;28;20076;-68
2023/10/23 01:01:46;;;;;;;5.70;3.28;;;;;;;6.87;100.00;96381.44;5041252;28;20301;-68
2023/10/23 01:04:11;;;;;;;6.38;3.35;;;;;;;6.88;100.00;96383.81;5036433;28;20180;-68
2023/10/23 01:06:37;;;;;;;6.28;3.47;;;;;;;6.94;100.00;96387.06;5039670;28;20073;-67
2023/10/23 01:09:03;;;;;;;6.10;3.35;;;;;;;7.04;100.00;96378.38;5043234;28;20037;-69
2023/10/23 01:11:28;;;;;;;8.57;3.45;;;;;;;7.04;100.00;96385.75;5023867;28;20109;-68
2023/10/23 01:13:53;;;;;;;8.75;3.22;;;;;;;7.03;100.00;96386.91;5039717;28;20041;-69
2023/10/23 01:16:19;;;;;;;8.65;3.38;;;;;;;7.11;100.00;96377.75;5041493;28;20048;-68
2023/10/23 01:18:44;;;;;;;7.15;3.35;;;;;;;7.07;100.00;96385.81;5024397;28;20033;-68
2023/10/23 01:21:10;;;;;;;7.97;4.32;;;;;;;6.85;100.00;96386.44;5032748;28;20053;-68
2023/10/23 01:23:36;;;;;;;8.05;3.75;;;;;;;6.78;100.00;96384.31;5033679;28;20041;-68
2023/10/23 01:26:02;;;;;;;5.28;3.60;;;;;;;6.70;100.00;96383.34;5034383;28;20103;-68
2023/10/23 01:28:27;;;;;;;4.90;3.28;;;;;;;6.63;100.00;96372.28;5029201;28;20046;-68
2023/10/23 01:30:53;;;;;;;5.82;3.28;;;;;;;6.63;100.00;96380.44;5039137;28;20037;-68
2023/10/23 01:33:18;;;;;;;8.07;3.58;;;;;;;6.66;100.00;96387.91;5030090;28;20033;-67
2023/10/23 01:35:44;;;;;;;8.10;3.58;;;;;;;6.76;100.00;96391.28;5025710;28;20041;-68
2023/10/23 01:38:11;;;;;;;8.77;3.33;;;;;;;6.81;100.00;96378.19;5025041;28;20048;-67
2023/10/23 01:40:37;;;;;;;5.35;3.58;;;;;;;6.83;100.00;96396.91;5047150;28;20041;-67
2023/10/23 01:43:02;;;;;;;10.55;3.63;;;;;;;6.67;100.00;96397.66;5021879;28;20116;-66
2023/10/23 01:45:28;;;;;;;11.88;3.30;;;;;;;6.44;100.00;96389.25;5019722;28;20137;-67
2023/10/23 01:47:53;;;;;;;11.32;3.08;;;;;;;6.55;100.00;96377.88;5026520;28;20044;-67
2023/10/23 01:50:18;;;;;;;6.25;2.65;;;;;;;6.74;100.00;96383.44;5021541;28;20046;-67
2023/10/23 01:52:44;;;;;;;5.38;3.03;;;;;;;6.71;100.00;96389.59;5005746;28;20136;-68
2023/10/23 01:55:11;;;;;;;5.40;2.78;;;;;;;6.66;100.00;96387.91;5018242;28;20037;-68
2023/10/23 01:57:36;;;;;;;6.95;2.70;;;;;;;6.60;100.00;96372.19;5022837;28;20038;-67
2023/10/23 02:00:06;;;;;;;5.82;2.72;;;;;;;6.73;100.00;96381.84;5022619;28;20044;-67
2023/10/23 02:02:33;;;;;;;4.15;2.90;;;;;;;6.85;100.00;96375.56;5022879;28;20041;-67
2023/10/23 02:04:59;;;;;;;6.20;2.75;;;;;;;6.94;100.00;96372.66;5021059;28;20040;-67
2023/10/23 02:07:26;;;;;;;4.45;3.00;;;;;;;6.96;100.00;96373.09;5008803;28;20387;-66
2023/10/23 02:09:52;;;;;;;6.63;3.20;;;;;;;6.88;100.00;96374.88;5030926;28;20037;-67
2023/10/23 02:12:17;;;;;;;3.97;2.80;;;;;;;6.58;100.00;96369.03;5026386;28;20047;-68
2023/10/23 02:14:42;;;;;;;5.82;3.22;;;;;;;6.61;100.00;96371.84;5025094;28;20042;-68
2023/10/23 02:17:08;;;;;;;7.88;3.47;;;;;;;6.76;100.00;96370.28;5022447;28;20072;-67
2023/10/23 02:19:33;;;;;;;5.13;3.05;;;;;;;6.79;100.00;96364.16;4998279;28;20041;-67
2023/10/23 02:21:58;;;;;;;8.55;3.30;;;;;;;6.94;100.00;96368.00;5025129;28;20033;-70
2023/10/23 02:24:24;;;;;;;7.78;3.28;;;;;;;6.96;100.00;96373.09;5026008;28;20041;-66
2023/10/23 02:26:49;;;;;;;6.97;3.28;;;;;;;6.97;100.00;96369.22;5022131;28;20037;-67
2023/10/23 02:29:15;;;;;;;6.40;3.05;;;;;;;6.99;100.00;96367.75;5001315;28;20026;-67
2023/10/23 02:31:40;;;;;;;5.85;2.85;;;;;;;6.96;100.00;96371.16;5023199;28;20041;-67
2023/10/23 02:34:07;;;;;;;5.30;2.78;;;;;;;6.96;100.00;96364.94;5018521;28;20611;-68
2023/10/23 02:36:32;;;;;;;6.07;2.80;;;;;;;7.10;100.00;96369.97;5015241;28;20049;-67
2023/10/23 02:38:59;;;;;;;3.53;2.60;;;;;;;7.07;100.00;96368.72;5024306;28;20033;-67
2023/10/23 02:41:25;;;;;;;4.07;2.85;;;;;;;6.95;100.00;96369.59;5017223;28;20111;-67
2023/10/23 02:43:50;;;;;;;4.63;2.83;;;;;;;6.96;100.00;96362.22;5021906;28;20061;-67
2023/10/23 02:46:16;;;;;;;7.50;2.88;;;;;;;6.80;100.00;96371.16;5017539;28;20512;-68
2023/10/23 02:48:42;;;;;;;7.95;3.05;;;;;;;6.78;100.00;96367.22;5022312;28;20037;-68
2023/10/23 02:51:08;;;;;;;5.70;2.90;;;;;;;6.67;100.00;96359.56;5018896;28;20041;-68
2023/10/23 02:53:34;;;;;;;3.80;3.00;;;;;;;6.51;100.00;96361.47;5030848;28;20045;-68
2023/10/23 02:55:59;;;;;;;6.50;3.53;;;;;;;6.46;100.00;96359.00;5022629;28;20377;-68
2023/10/23 02:58:24;;;;;;;4.82;3.00;;;;;;;6.46;100.00;96357.06;5025518;28;20048;-68
2023/10/23 03:00:50;;;;;;;5.68;3.10;;;;;;;6.49;100.00;96350.13;5025517;28;20052;-68
2023/10/23 03:03:15;;;;;;;3.90;3.00;;;;;;;6.43;100.00;96356.97;5022437;28;20037;-67
2023/10/23 03:05:41;;;;;;;5.50;2.78;;;;;;;6.42;100.00;96358.13;5030285;28;20041;-67
2023/10/23 03:08:06;;;;;;;9.80;4.55;;;;;;;6.47;100.00;96355.91;5017475;28;20038;-68
2023/10/23 03:10:32;;;;;;;4.85;2.90;;;;;;;6.56;100.00;96360.44;5037611;28;20049;-69
2023/10/23 03:12:57;;;;;;;5.30;3.10;;;;;;;6.70;100.00;96358.88;5022546;28;20107;-68
2023/10/23 03:15:23;;;;;;;7.95;2.95;;;;;;;6.85;100.00;96359.22;5017126;28;20037;-68
2023/10/23 03:17:48;;;;;;;4.60;2.95;;;;;;;6.93;100.00;96354.75;5021407;28;20105;-68
2023/10/23 03:20:14;;;;;;;4.30;2.58;;;;;;;6.90;100.00;96350.81;5020125;28;20038;-67
2023/10/23 03:22:39;;;;;;;6.28;2.70;;;;;;;6.89;100.00;96346.47;5024650;28;20037;-67
2023/10/23 03:25:06;;;;;;;6.95;3.95;;;;;;;6.92;100.00;96345.78;5019621;28;20120;-69
2023/10/23 03:27:32;;;;;;;6.50;2.72;;;;;;;6.98;100.00;96354.47;5023840;28;20132;-68
2023/10/23 03:29:57;;;;;;;4.00;2.75;;;;;;;7.03;100.00;96359.66;5031190;28;20535;-68
2023/10/23 03:32:23;;;;;;;4.18;2.65;;;;;;;7.03;100.00;96356.94;5005387;28;20045;-67
2023/10/23 03:34:49;;;;;;;3.50;2.50;;;;;;;7.08;100.00;96365.63;5024006;28;20461;-68
2023/10/23 03:37:14;;;;;;;9.70;2.75;;;;;;;7.13;100.00;96364.59;5016202;28;20397;-67
2023/10/23 03:39:40;;;;;;;8.00;3.13;;;;;;;7.10;100.00;96373.47;5024339;28;20507;-67
2023/10/23 03:42:06;;;;;;;5.70;3.10;;;;;;;7.13;100.00;96364.59;5018424;28;20033;-69
2023/10/23 03:44:31;;;;;;;7.63;2.83;;;;;;;7.13;100.00;96356.44;5024219;28;20048;-67
2023/10/23 03:46:57;;;;;;;4.20;2.42;;;;;;;7.18;100.00;96353.41;5024067;28;20041;-68
2023/10/23 03:49:22;;;;;;;5.20;3.00;;;;;;;7.18;100.00;96345.25;5019552;28;20049;-67
2023/10/23 03:51:48;;;;;;;3.38;2.70;;;;;;;6.65;100.00;96348.22;5026255;28;20091;-66
2023/10/23 03:54:13;;;;;;;9.75;3.45;;;;;;;6.38;100.00;96349.84;5019561;28;20041;-66
2023/10/23 03:56:39;;;;;;;5.25;2.65;;;;;;;6.46;100.00;96342.66;5023031;28;20042;-67
2023/10/23 03:59:04;;;;;;;5.15;2.97;;;;;;;6.32;100.00;96346.59;5019712;28;20041;-66
2023/10/23 04:01:30;;;;;;;9.68;3.63;;;;;;;6.21;100.00;96336.56;5024048;28;20048;-67
2023/10/23 04:03:56;;;;;;;6.43;3.20;;;;;;;6.20;100.00;96330.34;5023025;28;20034;-67
2023/10/23 04:06:21;;;;;;;6.78;3.13;;;;;;;6.32;100.00;96321.34;5001406;28;21038;-67
2023/10/23 04:08:46;;;;;;;5.05;2.88;;;;;;;6.50;100.00;96311.69;5021428;28;20554;-67
2023/10/23 04:11:13;;;;;;;4.32;3.05;;;;;;;6.66;100.00;96319.88;5018381;28;20079;-68
2023/10/23 04:13:39;;;;;;;5.22;3.08;;;;;;;6.81;100.00;96323.75;5023404;28;20045;-68
2023/10/23 04:16:04;;;;;;;5.93;3.00;;;;;;;6.84;100.00;96325.78;5023687;28;20051;-67
2023/10/23 04:18:30;;;;;;;5.85;3.20;;;;;;;6.90;100.00;96331.75;5026441;28;20124;-67
2023/10/23 04:21:09;;;;;;;7.88;3.10;;;;;;;6.91;100.00;96332.53;5005802;28;20148;-67
2023/10/23 04:23:37;;;;;;;6.75;3.40;;;;;;;6.91;100.00;96330.59;5021496;28;20041;-67
2023/10/23 04:26:03;;;;;;;6.05;3.10;;;;;;;7.00;100.00;96327.69;5021188;28;20037;-67
2023/10/23 04:28:28;;;;;;;6.18;2.90;;;;;;;7.08;100.00;96324.78;5021524;28;20033;-67
2023/10/23 04:30:55;;;;;;;4.55;3.03;;;;;;;7.07;100.00;96320.47;5027961;28;20045;-66
2023/10/23 04:33:24;;;;;;;6.63;3.30;;;;;;;7.06;100.00;96313.47;5031567;28;20037;-67
2023/10/23 04:35:54;;;;;;;8.13;3.20;;;;;;;7.08;100.00;96315.84;5034329;28;20065;-67
2023/10/23 04:38:20;;;;;;;4.38;3.20;;;;;;;7.05;100.00;96317.31;5022704;28;20095;-67
2023/10/23 04:40:46;;;;;;;6.03;3.13;;;;;;;7.02;100.00;96319.97;5023282;28;20041;-66
2023/10/23 04:43:12;;;;;;;5.60;2.90;;;;;;;7.06;100.00;96315.41;5018594;28;20069;-67
2023/10/23 04:45:37;;;;;;;6.40;2.85;;;;;;;7.07;100.00;96312.31;5030079;28;20443;-67
2023/10/23 04:48:04;;;;;;;6.80;2.72;;;;;;;7.06;100.00;96310.75;5029778;28;20040;-66
2023/10/23 04:50:39;;;;;;;5.47;2.70;;;;;;;6.94;100.00;96326.38;5021795;28;20517;-66
2023/10/23 04:53:06;;;;;;;8.55;3.15;;;;;;;6.83;100.00;96318.75;5011666;28;20124;-67
2023/10/23 04:55:36;;;;;;;7.80;2.97;;;;;;;6.82;100.00;96303.53;5031250;28;20041;-67
2023/10/23 04:58:02;;;;;;;9.63;3.22;;;;;;;6.89;100.00;96294.75;5020634;28;20073;-68
2023/10/23 05:00:29;;;;;;;6.68;3.13;;;;;;;6.79;100.00;96293.38;5021815;28;20440;-68
2023/10/23 05:02:54;;;;;;;5.38;3.15;;;;;;;6.73;100.00;96294.75;5023357;28;20064;-68
2023/10/23 05:05:20;;;;;;;6.65;3.00;;;;;;;6.74;100.00;96292.84;5018052;28;20132;-70
2023/10/23 05:07:45;;;;;;;5.18;3.30;;;;;;;6.82;100.00;96291.88;5005038;28;20049;-70
2023/10/23 05:10:11;;;;;;;5.80;3.40;;;;;;;6.93;100.00;96286.69;5017990;28;20040;-69
2023/10/23 05:12:37;;;;;;;6.07;3.20;;;;;;;7.04;100.00;96285.81;5022893;28;20049;-69
2023/10/23 05:15:03;;;;;;;7.15;3.42;;;;;;;7.14;100.00;96289.13;5020075;28;20088;-68
2023/10/23 05:17:29;;;;;;;9.50;3.25;;;;;;;7.25;100.00;96288.19;5005067;28;20132;-69
2023/10/23 05:19:54;;;;;;;5.80;3.10;;;;;;;7.21;100.00;96286.56;5018044;28;20128;-69
2023/10/23 05:22:19;;;;;;;7.78;4.47;;;;;;;7.15;100.00;96287.97;4999738;28;20128;-69
2023/10/23 05:24:46;;;;;;;18.42;6.95;;;;;;;7.36;100.00;96287.66;5022198;28;20091;-69
2023/10/23 05:27:12;;;;;;;8.85;3.10;;;;;;;7.25;100.00;96290.94;5016624;28;20069;-68
2023/10/23 05:29:37;;;;;;;9.40;4.95;;;;;;;7.21;100.00;96281.91;5024321;28;20044;-70
2023/10/23 05:32:03;;;;;;;13.32;7.38;;;;;;;7.24;100.00;96283.91;5031210;28;20036;-68
2023/10/23 05:34:29;;;;;;;10.55;5.35;;;;;;;7.25;100.00;96277.31;5025866;28;20552;-68
2023/10/23 05:36:54;;;;;;;9.27;5.28;;;;;;;7.21;100.00;96276.44;5040840;28;20396;-69
2023/10/23 05:39:19;;;;;;;8.07;4.50;;;;;;;7.19;100.00;96283.41;5030088;28;20043;-68
2023/10/23 05:41:45;;;;;;;11.05;4.72;;;;;;;7.20;100.00;96282.25;5032143;28;20052;-69
2023/10/23 05:44:10;;;;;;;9.35;6.30;;;;;;;7.06;100.00;96288.19;5030609;28;20573;-70
2023/10/23 05:46:35;;;;;;;6.88;5.03;;;;;;;7.06;100.00;96283.50;5032870;28;20045;-69
2023/10/23 05:49:01;;;;;;;6.18;3.90;;;;;;;7.08;100.00;96289.38;5041643;28;20041;-68
2023/10/23 05:51:26;;;;;;;6.53;4.25;;;;;;;7.17;100.00;96293.88;5021760;28;20616;-68
2023/10/23 05:53:52;;;;;;;7.97;5.78;;;;;;;7.15;100.00;96291.50;5038704;28;20069;-69
2023/10/23 05:56:17;;;;;;;7.40;4.78;;;;;;;7.25;100.00;96287.41;5015179;28;20083;-69
2023/10/23 05:58:44;;;;;;;11.82;5.38;;;;;;;7.26;100.00;96291.75;5029813;28;20041;-70
2023/10/23 06:01:11;;;;;;;8.55;4.82;;;;;;;7.37;100.00;96291.97;4995392;28;20040;-69
2023/10/23 06:03:36;;;;;;;8.73;5.90;;;;;;;7.40;100.00;96292.06;5024094;28;20045;-70
2023/10/23 06:06:03;;;;;;;8.27;4.75;;;;;;;7.47;100.00;96288.69;5018481;28;20401;-68
2023/10/23 06:08:29;;;;;;;7.38;4.05;;;;;;;7.41;100.00;96281.94;5001467;28;20443;-72
2023/10/23 06:10:54;;;;;;;7.25;4.10;;;;;;;7.49;100.00;96274.69;5021072;28;20042;-69
2023/10/23 06:13:23;;;;;;;7.05;3.40;;;;;;;7.53;100.00;96283.75;5015591;28;20144;-71
2023/10/23 06:15:48;;;;;;;5.75;3.47;;;;;;;7.55;100.00;96279.53;5020425;28;20045;-71
2023/10/23 06:18:14;;;;;;;8.30;3.50;;;;;;;7.59;100.00;96266.75;5015574;28;20095;-69
2023/10/23 06:20:39;;;;;;;9.63;3.30;;;;;;;7.64;100.00;96271.16;5018568;28;20045;-70
2023/10/23 06:23:04;;;;;;;10.30;4.32;;;;;;;7.64;100.00;96277.38;5016317;28;20041;-70
2023/10/23 06:25:31;;;;;;;7.82;3.70;;;;;;;7.60;100.00;96275.75;5020294;28;20048;-69
2023/10/23 06:27:57;;;;;;;7.00;3.22;;;;;;;7.58;100.00;96276.09;5020451;28;20056;-70
2023/10/23 06:30:23;;;;;;;5.93;3.35;;;;;;;7.43;100.00;96264.06;5019204;28;20243;-70
2023/10/23 06:32:48;;;;;;;13.48;4.45;;;;;;;7.54;100.00;96268.97;5019869;28;20409;-68
2023/10/23 06:35:15;;;;;;;5.20;3.85;;;;;;;7.63;100.00;96270.38;5015342;28;20037;-69
2023/10/23 06:37:40;;;;;;;9.93;3.50;;;;;;;7.84;100.00;96280.91;5020861;28;20500;-71
2023/10/23 06:40:06;;;;;;;7.20;3.30;;;;;;;8.03;100.00;96282.84;5016461;28;20124;-71
2023/10/23 06:42:34;;;;;;;6.32;2.92;;;;;;;8.19;100.00;96273.75;5021466;28;20047;-69
2023/10/23 06:45:00;;;;;;;5.13;3.47;;;;;;;8.19;100.00;96265.56;5020044;28;20041;-71
2023/10/23 06:47:26;;;;;;;10.10;3.92;;;;;;;8.20;100.00;96262.50;5015623;28;20041;-70
2023/10/23 06:49:52;;;;;;;6.80;4.68;;;;;;;8.07;100.00;96273.91;5020578;28;20122;-70
2023/10/23 06:52:17;;;;;;;10.38;5.97;;;;;;;8.18;100.00;96262.06;5021551;28;20041;-70
2023/10/23 06:54:42;;;;;;;9.48;5.70;;;;;;;8.38;100.00;96253.84;5026455;28;20052;-69
2023/10/23 06:57:08;;;;;;;6.45;3.53;;;;;;;8.60;100.00;96244.09;5018811;28;20041;-70
2023/10/23 06:59:37;;;;;;;7.78;3.90;;;;;;;8.73;100.00;96244.72;5024033;28;20107;-71
2023/10/23 07:02:02;;;;;;;6.10;4.95;;;;;;;8.74;100.00;96249.81;5023343;28;20034;-67
2023/10/23 07:04:28;;;;;;;7.57;4.47;;;;;;;8.82;100.00;96271.75;5021798;28;20075;-70
2023/10/23 07:06:54;;;;;;;7.85;3.58;;;;;;;8.86;100.00;96267.13;5024605;28;20069;-70
2023/10/23 07:09:20;;;;;;;7.60;3.60;;;;;;;8.91;100.00;96269.56;5020060;28;20045;-70
2023/10/23 07:11:50;;;;;;;6.22;3.33;;;;;;;9.08;100.00;96265.56;5023357;28;20095;-70
2023/10/23 07:14:15;;;;;;;5.43;3.20;;;;;;;9.09;100.00;96267.13;5021513;28;20034;-68
2023/10/23 07:16:42;;;;;;;6.70;3.15;;;;;;;9.15;100.00;96273.84;5029121;28;20076;-71
2023/10/23 07:19:08;;;;;;;8.82;3.33;;;;;;;9.18;100.00;96262.16;5028766;28;20034;-70
2023/10/23 07:21:33;;;;;;;8.73;3.28;;;;;;;9.31;100.00;96258.09;5030809;28;20067;-69
2023/10/23 07:23:59;;;;;;;12.02;3.38;;;;;;;9.40;100.00;96257.81;5030336;28;20041;-69
2023/10/23 07:26:25;;;;;;;5.03;2.67;;;;;;;9.35;100.00;96247.19;5025594;28;20098;-69
2023/10/23 07:28:50;;;;;;;6.50;4.10;;;;;;;9.54;100.00;96230.69;5030089;28;20075;-69
2023/10/23 07:31:16;;;;;;;8.80;3.00;;;;;;;9.69;100.00;96239.84;5024133;28;20416;-69
2023/10/23 07:33:42;;;;;;;4.57;2.88;;;;;;;10.14;100.00;96239.97;5029520;28;20404;-70
2023/10/23 07:36:10;;;;;;;8.07;3.10;;;;;;;10.98;100.00;96242.28;5032873;28;20056;-68
2023/10/23 07:38:41;;;;;;;9.77;2.83;;;;;;;12.68;100.00;96237.13;5012688;28;20053;-70
2023/10/23 07:41:07;;;;;;;5.20;2.17;;;;;;;12.72;100.00;96245.38;5025825;28;20492;-69
2023/10/23 07:43:36;;;;;;;4.55;2.10;;;;;;;12.57;100.00;96236.34;5029494;28;20495;-70
2023/10/23 07:46:09;;;;;;;8.15;2.45;;;;;;;12.67;100.00;96230.06;5020797;28;20045;-70
2023/10/23 07:48:34;;;;;;;3.03;2.22;;;;;;;12.09;100.00;96233.88;5030353;28;20106;-71
2023/10/23 07:51:00;;;;;;;3.63;2.10;;;;;;;12.66;100.00;96244.16;5029779;28;20041;-71
2023/10/23 07:53:26;;;;;;;7.22;2.55;;;;;;;13.02;100.00;96242.25;5026481;28;20127;-69
2023/10/23 07:55:52;;;;;;;5.55;3.20;;;;;;;12.52;100.00;96232.00;5038494;28;20052;-68
2023/10/23 07:58:17;;;;;;;5.72;3.15;;;;;;;12.00;100.00;96229.53;5031460;28;20068;-69
2023/10/23 08:00:46;;;;;;;4.82;3.50;;;;;;;12.04;100.00;96222.09;5033635;28;20034;-69
2023/10/23 08:03:11;;;;;;;4.35;2.50;;;;;;;12.89;100.00;96232.81;5026496;28;20052;-69
2023/10/23 08:05:37;;;;;;;7.40;2.45;;;;;;;13.12;100.00;96241.41;5031935;28;20041;-71
2023/10/23 08:08:04;;;;;;;5.47;2.40;;;;;;;13.27;100.00;96238.66;5028449;28;20132;-73
2023/10/23 08:10:30;;;;;;;6.85;2.70;;;;;;;12.22;100.00;96235.88;5029179;28;20132;-70
2023/10/23 08:12:55;;;;;;;6.40;2.33;;;;;;;11.16;100.00;96226.75;5027938;28;20053;-68
2023/10/23 08:15:20;;;;;;;5.68;2.25;;;;;;;10.81;100.00;96227.28;5025495;28;20492;-69
2023/10/23 08:17:46;;;;;;;3.92;2.13;;;;;;;10.74;100.00;96214.31;5029713;28;20706;-69
2023/10/23 08:20:11;;;;;;;7.75;3.72;;;;;;;10.75;100.00;96212.38;5002582;28;20124;-70
2023/10/23 08:22:37;;;;;;;14.18;5.13;;;;;;;10.85;100.00;96215.19;5043009;28;20045;-69
2023/10/23 08:25:03;;;;;;;8.15;3.15;;;;;;;10.93;100.00;96204.28;5016611;28;20214;-72
2023/10/23 08:27:30;;;;;;;9.40;5.78;;;;;;;11.15;100.00;96205.22;5027594;28;20045;-70
2023/10/23 08:29:55;;;;;;;4.70;2.85;;;;;;;11.24;100.00;96200.97;5033786;28;20040;-70
2023/10/23 08:32:21;;;;;;;6.00;2.70;;;;;;;11.36;100.00;96197.13;5024339;28;20515;-70
2023/10/23 08:34:46;;;;;;;5.70;2.10;;;;;;;11.39;100.00;96184.59;5032442;28;20150;-70
2023/10/23 08:37:12;;;;;;;5.32;2.10;;;;;;;11.31;100.00;96182.97;5029715;28;20503;-70
2023/10/23 08:39:37;;;;;;;4.50;2.10;;;;;;;11.37;100.00;96181.44;5029726;28;20364;-69
2023/10/23 08:42:03;;;;;;;5.07;1.77;;;;;;;11.30;100.00;96184.94;5028679;28;20037;-72
2023/10/23 08:44:29;;;;;;;8.68;2.17;;;;;;;11.27;100.00;96180.22;5031563;28;20484;-68
2023/10/23 08:46:55;;;;;;;3.92;2.30;;;;;;;11.37;100.00;96171.25;5026837;28;20045;-70
2023/10/23 08:49:20;;;;;;;3.85;1.88;;;;;;;11.39;100.00;96168.91;5031903;28;20041;-68
2023/10/23 08:51:50;;;;;;;2.95;1.83;;;;;;;11.45;100.00;96177.56;5028933;28;20190;-70
2023/10/23 08:54:20;;;;;;;4.32;1.77;;;;;;;11.50;100.00;96179.16;5024007;28;20086;-70
2023/10/23 08:56:56;;;;;;;4.05;1.95;;;;;;;11.47;100.00;96177.97;5028633;28;20041;-69
2023/10/23 08:59:22;;;;;;;5.80;1.90;;;;;;;11.46;100.00;96185.41;5023017;28;20659;-69
2023/10/23 09:01:47;;;;;;;6.22;1.77;;;;;;;11.38;100.00;96193.97;5026874;28;20042;-70
2023/10/23 09:04:13;;;;;;;4.70;2.10;;;;;;;11.34;100.00;96188.47;5023871;28;20052;-69
2023/10/23 09:06:38;;;;;;;6.45;1.60;;;;;;;11.44;100.00;96192.44;5028135;28;20041;-69
2023/10/23 09:09:05;;;;;;;3.70;1.70;;;;;;;11.48;100.00;96202.25;5024635;28;20033;-71
2023/10/23 09:11:38;;;;;;;10.55;1.63;;;;;;;11.78;100.00;96212.19;5028196;28;20060;-71
2023/10/23 09:14:04;;;;;;;4.25;1.30;;;;;;;12.05;100.00;96220.16;5025494;28;20034;-71
2023/10/23 09:16:29;;;;;;;5.50;1.50;;;;;;;12.48;100.00;96213.94;5027224;28;20457;-68
2023/10/23 09:18:55;;;;;;;4.75;1.50;;;;;;;12.74;100.00;96218.28;5035757;28;20049;-70
2023/10/23 09:21:21;;;;;;;4.75;2.50;;;;;;;12.95;100.00;96228.50;5022321;28;20109;-70
2023/10/23 09:23:54;;;;;;;3.58;1.67;;;;;;;13.14;100.00;96239.09;5027842;28;20068;-70
2023/10/23 09:26:20;;;;;;;13.27;1.80;;;;;;;13.07;100.00;96232.78;5022526;28;20037;-70
2023/10/23 09:28:47;;;;;;;3.88;1.80;;;;;;;12.93;100.00;96239.09;5027189;28;20144;-70
2023/10/23 09:31:13;;;;;;;3.95;1.70;;;;;;;13.02;100.00;96242.25;5022220;28;20429;-68
2023/10/23 09:33:38;;;;;;;3.00;1.58;;;;;;;13.03;100.00;96249.28;5036800;28;20132;-68
2023/10/23 09:36:05;;;;;;;5.20;1.73;;;;;;;12.75;100.00;96242.63;5023630;28;20527;-71
2023/10/23 09:38:32;;;;;;;3.75;1.70;;;;;;;12.75;100.00;96241.84;5026677;28;20097;-70
2023/10/23 09:41:00;;;;;;;4.55;1.80;;;;;;;12.79;100.00;96242.63;5027127;28;20037;-71
2023/10/23 09:43:25;;;;;;;5.40;1.60;;;;;;;12.91;100.00;96238.69;5023431;28;20076;-69
2023/10/23 09:45:52;;;;;;;4.43;1.52;;;;;;;13.05;100.00;96243.41;5025712;28;20041;-68
2023/10/23 09:48:20;;;;;;;5.47;1.50;;;;;;;13.00;100.00;96231.63;5020985;28;20077;-70
2023/10/23 09:50:48;;;;;;;7.25;1.50;;;;;;;12.96;100.00;96233.59;5027265;28;20164;-68
2023/10/23 09:53:16;;;;;;;6.57;1.77;;;;;;;13.19;100.00;96224.13;5022649;28;20033;-69
2023/10/23 09:55:44;;;;;;;3.25;1.50;;;;;;;13.28;100.00;96210.75;5026572;28;20044;-69
2023/10/23 09:58:17;;;;;;;7.70;1.95;;;;;;;13.39;100.00;96197.78;5027568;28;20044;-68
2023/10/23 10:00:48;;;;;;;3.70;1.58;;;;;;;13.21;100.00;96177.78;5029854;28;20045;-69
2023/10/23 10:03:20;;;;;;;4.90;1.60;;;;;;;12.84;100.00;96162.53;5021585;28;20087;-68
2023/10/23 10:05:56;;;;;;;2.63;1.50;;;;;;;12.90;100.00;96151.94;5008690;28;20100;-68
2023/10/23 10:08:23;;;;;;;4.15;1.77;;;;;;;13.12;100.00;96163.66;5004999;28;21338;-68
2023/10/23 10:10:50;;;;;;;4.45;1.90;;;;;;;13.23;100.00;96167.16;5026637;28;20105;-69
2023/10/23 10:13:16;;;;;;;4.38;1.73;;;;;;;13.09;100.00;96153.44;5021887;28;20052;-69
2023/10/23 10:15:43;;;;;;;3.63;1.70;;;;;;;13.23;100.00;96144.38;5043765;28;20136;-70
2023/10/23 10:18:10;;;;;;;5.07;2.20;;;;;;;13.60;100.00;96149.41;5022439;28;20045;-69
2023/10/23 10:20:37;;;;;;;3.08;1.70;;;;;;;13.79;100.00;96158.34;5027114;28;20029;-69
2023/10/23 10:23:14;;;;;;;5.30;1.67;;;;;;;14.21;100.00;96153.78;5024497;28;20416;-72
2023/10/23 10:25:43;;;;;;;4.72;1.80;;;;;;;14.59;100.00;96148.44;5026192;28;20049;-70
2023/10/23 10:28:09;;;;;;;4.82;1.60;;;;;;;14.64;100.00;96156.22;5024853;28;20423;-70
2023/10/23 10:30:50;;;;;;;4.03;1.90;;;;;;;14.61;100.00;96154.31;5013188;28;20139;-71
2023/10/23 10:33:19;;;;;;;6.18;1.90;;;;;;;14.61;100.00;96166.09;5020220;28;20041;-68
2023/10/23 10:35:52;;;;;;;5.45;1.60;;;;;;;14.32;100.00;96169.03;5026644;28;20041;-69
2023/10/23 10:38:22;;;;;;;3.75;1.70;;;;;;;14.00;100.00;96166.50;5022720;28;20464;-69
2023/10/23 10:41:04;;;;;;;3.58;1.80;;;;;;;13.99;100.00;96156.69;5034842;28;20489;-69
2023/10/23 10:43:35;;;;;;;5.40;1.65;;;;;;;13.97;100.00;96161.78;5029940;28;20049;-70
2023/10/23 10:46:23;;;;;;;4.57;1.70;;;;;;;14.29;100.00;96163.56;5027943;28;20045;-69
2023/10/23 10:48:51;;;;;;;6.07;1.60;;;;;;;14.62;100.00;96162.19;5006575;28;20052;-68
2023/10/23 10:51:21;;;;;;;5.03;2.60;;;;;;;14.78;100.00;96156.09;5026641;28;20100;-68
2023/10/23 10:53:48;;;;;;;7.95;2.30;;;;;;;15.09;100.00;96139.69;5029628;28;20037;-68
2023/10/23 10:56:14;;;;;;;6.25;1.80;;;;;;;14.57;100.00;96142.47;5003807;28;20038;-68
2023/10/23 10:58:43;;;;;;;3.13;1.65;;;;;;;14.41;100.00;96127.28;5026559;28;20119;-68
2023/10/23 11:01:09;;;;;;;4.97;2.15;;;;;;;14.89;100.00;96131.19;5012087;28;20029;-68
2023/10/23 11:03:36;;;;;;;3.88;2.17;;;;;;;14.56;100.00;96138.94;5025834;28;20128;-69
2023/10/23 11:06:02;;;;;;;3.80;2.08;;;;;;;14.14;100.00;96160.13;5027123;28;20123;-69
2023/10/23 11:08:28;;;;;;;2.83;1.35;;;;;;;14.81;100.00;96160.03;5023206;28;20057;-69
2023/10/23 11:11:01;;;;;;;4.65;2.28;;;;;;;15.08;100.00;96157.41;5026194;28;20066;-69
2023/10/23 11:13:27;;;;;;;4.63;1.90;;;;;;;15.62;100.00;96148.53;5019525;28;20044;-68
2023/10/23 11:15:56;;;;;;;4.03;1.70;;;;;;;15.76;100.00;96151.16;5025930;28;20046;-69
2023/10/23 11:18:22;;;;;;;7.60;1.70;;;;;;;15.90;100.00;96141.09;5029576;28;20149;-69
2023/10/23 11:20:48;;;;;;;6.15;1.60;;;;;;;16.09;98.17;96142.44;5025609;28;20061;-71
2023/10/23 11:23:18;;;;;;;4.18;1.92;;;;;;;16.05;96.50;96145.25;5021065;28;20385;-70
2023/10/23 11:25:51;;;;;;;6.43;1.58;;;;;;;15.32;100.00;96130.75;5034344;28;20051;-72